createdAt,value
2019-05-18T00:04:01.351Z,8.98
2019-05-18T00:09:08.020Z,10.38
2019-05-18T00:14:13.263Z,10.30
2019-05-18T00:19:18.533Z,9.43
2019-05-18T00:24:23.940Z,10.55
2019-05-18T00:29:29.603Z,11.22
2019-05-18T00:34:34.849Z,10.75
2019-05-18T00:39:40.480Z,11.68
2019-05-18T00:44:45.725Z,10.17
2019-05-18T00:49:51.814Z,12.33
2019-05-18T00:54:57.062Z,10.90
2019-05-18T01:00:02.661Z,12.07
2019-05-18T01:05:08.019Z,10.28
2019-05-18T01:10:13.764Z,10.55
2019-05-18T01:15:19.208Z,9.90
2019-05-18T01:20:24.530Z,15.48
2019-05-18T01:25:29.790Z,13.03
2019-05-18T01:30:35.036Z,13.83
2019-05-18T01:35:40.282Z,9.78
2019-05-18T01:40:45.926Z,10.60
2019-05-18T01:45:51.157Z,9.85
2019-05-18T01:50:57.474Z,12.20
2019-05-18T01:56:02.724Z,9.90
2019-05-18T02:01:07.881Z,10.73
2019-05-18T02:06:13.433Z,10.98
2019-05-18T02:11:18.741Z,12.30
2019-05-18T02:16:23.994Z,12.53
2019-05-18T02:21:29.786Z,12.37
2019-05-18T02:26:35.152Z,11.33
2019-05-18T02:31:41.654Z,11.67
2019-05-18T02:36:46.856Z,12.20
2019-05-18T02:41:52.031Z,13.23
2019-05-18T02:46:57.499Z,15.93
2019-05-18T02:52:02.684Z,14.53
2019-05-18T02:57:07.835Z,13.53
2019-05-18T03:02:13.408Z,16.73
2019-05-18T03:07:18.671Z,15.35
2019-05-18T03:12:24.236Z,13.98
2019-05-18T03:17:29.751Z,13.23
2019-05-18T03:22:35.177Z,12.87
2019-05-18T03:27:40.349Z,15.90
2019-05-18T03:32:45.833Z,16.03
2019-05-18T03:37:51.080Z,17.75
2019-05-18T03:42:57.326Z,21.43
2019-05-18T03:48:03.550Z,14.28
2019-05-18T03:53:08.684Z,12.63
2019-05-18T03:58:14.197Z,17.03
2019-05-18T04:03:19.450Z,16.70
2019-05-18T04:08:25.457Z,16.57
2019-05-18T04:13:31.171Z,21.33
2019-05-18T04:18:37.522Z,22.23
2019-05-18T04:23:42.962Z,21.77
2019-05-18T04:28:48.348Z,21.70
2019-05-18T04:33:54.439Z,19.10
2019-05-18T04:39:00.054Z,20.72
2019-05-18T04:44:05.741Z,18.07
2019-05-18T04:49:11.341Z,15.03
2019-05-18T04:54:16.973Z,15.20
2019-05-18T04:59:22.159Z,16.97
2019-05-18T05:04:27.385Z,17.60
2019-05-18T05:09:33.615Z,16.37
2019-05-18T05:14:39.139Z,22.48
2019-05-18T05:19:44.320Z,17.00
2019-05-18T05:24:49.485Z,18.33
2019-05-18T05:29:54.687Z,17.90
2019-05-18T05:34:59.829Z,15.60
2019-05-18T05:40:05.743Z,15.53
2019-05-18T05:45:11.458Z,14.00
2019-05-18T05:50:16.926Z,17.73
2019-05-18T05:55:22.356Z,13.72
2019-05-18T06:00:27.610Z,13.15
2019-05-18T06:05:34.687Z,15.18
2019-05-18T06:10:40.355Z,16.62
2019-05-18T06:15:45.611Z,15.43
2019-05-18T06:20:52.141Z,16.63
2019-05-18T06:25:58.659Z,15.20
2019-05-18T06:31:04.043Z,14.13
2019-05-18T06:36:09.686Z,13.72
2019-05-18T06:41:15.280Z,13.48
2019-05-18T06:46:20.848Z,13.00
2019-05-18T06:51:26.402Z,12.07
2019-05-18T06:56:34.128Z,12.35
2019-05-18T07:01:39.398Z,13.53
2019-05-18T07:06:44.653Z,14.07
2019-05-18T07:11:50.224Z,16.20
2019-05-18T07:16:55.476Z,15.13
2019-05-18T07:22:00.734Z,14.98
2019-05-18T07:27:06.311Z,12.90
2019-05-18T07:32:11.566Z,8.50
2019-05-18T07:37:16.793Z,7.55
2019-05-18T07:42:25.390Z,7.87
2019-05-18T07:47:31.054Z,8.38
2019-05-18T07:52:36.295Z,7.35
2019-05-18T07:57:41.571Z,7.80
2019-05-18T08:02:47.094Z,7.42
2019-05-18T08:07:52.352Z,8.63
2019-05-18T08:12:58.074Z,9.15
2019-05-18T08:18:04.871Z,6.20
2019-05-18T08:23:10.195Z,9.63
2019-05-18T08:28:15.480Z,6.97
2019-05-18T08:33:20.733Z,5.75
2019-05-18T08:38:26.665Z,5.85
2019-05-18T08:43:32.218Z,6.28
2019-05-18T08:48:38.534Z,6.70
2019-05-18T08:53:43.770Z,6.80
2019-05-18T08:58:49.390Z,6.15
2019-05-18T09:03:56.535Z,7.97
2019-05-18T09:09:02.401Z,5.78
2019-05-18T09:14:09.842Z,7.08
2019-05-18T09:19:16.283Z,14.38
2019-05-18T09:24:22.587Z,12.28
2019-05-18T09:29:27.816Z,12.85
2019-05-18T09:34:33.088Z,13.85
2019-05-18T09:39:38.278Z,11.85
2019-05-18T09:44:43.566Z,15.15
2019-05-18T09:49:49.941Z,12.33
2019-05-18T09:54:55.203Z,11.68
2019-05-18T10:00:00.488Z,13.53
2019-05-18T10:05:06.121Z,14.55
2019-05-18T10:10:11.964Z,14.43
2019-05-18T10:15:17.319Z,12.55
2019-05-18T10:20:22.779Z,14.70
2019-05-18T10:25:28.048Z,21.30
2019-05-18T10:30:33.301Z,15.13
2019-05-18T10:35:38.552Z,14.53
2019-05-18T10:40:43.916Z,14.30
2019-05-18T10:45:49.214Z,13.43
2019-05-18T10:50:54.476Z,13.00
2019-05-18T10:55:59.671Z,12.85
2019-05-18T11:01:05.771Z,11.05
2019-05-18T11:06:11.555Z,10.08
2019-05-18T11:11:16.809Z,10.18
2019-05-18T11:16:22.053Z,10.98
2019-05-18T11:21:27.309Z,11.90
2019-05-18T11:26:32.600Z,10.72
2019-05-18T11:31:38.248Z,10.35
2019-05-18T11:36:43.869Z,7.35
2019-05-18T11:41:49.432Z,9.60
2019-05-18T11:46:54.713Z,8.15
2019-05-18T11:52:00.123Z,9.65
2019-05-18T11:57:05.538Z,8.58
2019-05-18T12:02:11.146Z,7.17
2019-05-18T12:07:16.392Z,7.70
2019-05-18T12:12:22.307Z,6.20
2019-05-18T12:17:28.236Z,8.10
2019-05-18T12:22:33.475Z,7.30
2019-05-18T12:27:39.289Z,6.70
2019-05-18T12:32:44.657Z,5.62
2019-05-18T12:37:49.907Z,6.08
2019-05-18T12:42:55.152Z,6.20
2019-05-18T12:48:01.345Z,5.97
2019-05-18T12:53:06.726Z,5.17
2019-05-18T12:58:12.011Z,5.20
2019-05-18T13:03:17.556Z,4.62
2019-05-18T13:08:22.673Z,5.03
2019-05-18T13:13:28.314Z,4.60
2019-05-18T13:18:34.411Z,5.22
2019-05-18T13:23:39.956Z,4.33
2019-05-18T13:28:45.517Z,4.53
2019-05-18T13:33:57.211Z,4.10
2019-05-18T13:39:02.783Z,3.33
2019-05-18T13:44:09.142Z,3.80
2019-05-18T13:49:14.471Z,4.08
2019-05-18T13:54:20.067Z,3.87
2019-05-18T13:59:25.326Z,4.00
2019-05-18T14:04:31.782Z,3.80
2019-05-18T14:09:38.262Z,4.12
2019-05-18T14:14:43.549Z,3.72
2019-05-18T14:19:52.866Z,4.30
2019-05-18T14:24:58.630Z,4.33
2019-05-18T14:30:04.219Z,4.00
2019-05-18T14:35:09.933Z,4.65
2019-05-18T14:40:15.872Z,4.17
2019-05-18T14:45:22.133Z,4.78
2019-05-18T14:50:27.375Z,4.25
2019-05-18T14:55:34.107Z,5.08
2019-05-18T15:00:39.769Z,4.28
2019-05-18T15:05:45.011Z,3.98
2019-05-18T15:10:50.842Z,3.95
2019-05-18T15:15:56.120Z,4.17
2019-05-18T15:21:01.746Z,4.40
2019-05-18T15:26:07.267Z,4.53
2019-05-18T15:31:12.595Z,4.28
2019-05-18T15:36:17.848Z,3.67
2019-05-18T15:41:23.427Z,5.47
2019-05-18T15:46:29.227Z,3.80
2019-05-18T15:51:35.985Z,4.05
2019-05-18T15:56:44.186Z,4.35
2019-05-18T16:01:48.738Z,4.53
2019-05-18T16:06:54.031Z,4.25
2019-05-18T16:11:59.550Z,4.12
2019-05-18T16:17:04.808Z,4.00
2019-05-18T16:22:10.887Z,4.28
2019-05-18T16:27:16.675Z,4.65
2019-05-18T16:32:22.053Z,4.95
2019-05-18T16:37:27.635Z,4.30
2019-05-18T16:42:33.547Z,4.20
2019-05-18T16:47:40.093Z,4.30
2019-05-18T16:52:45.898Z,4.28
2019-05-18T16:57:52.652Z,3.90
2019-05-18T17:02:58.145Z,3.80
2019-05-18T17:08:04.602Z,4.00
2019-05-18T17:13:09.841Z,4.10
2019-05-18T17:18:15.183Z,4.22
2019-05-18T17:23:20.490Z,4.92
2019-05-18T17:28:26.042Z,5.33
2019-05-18T17:33:33.008Z,5.85
2019-05-18T17:38:39.101Z,7.22
2019-05-18T17:43:44.701Z,7.00
2019-05-18T17:48:50.831Z,8.80
2019-05-18T17:53:57.054Z,8.70
2019-05-18T17:59:02.792Z,9.33
2019-05-18T18:04:08.889Z,10.15
2019-05-18T18:09:14.481Z,10.98
2019-05-18T18:14:19.742Z,10.20
2019-05-18T18:19:25.711Z,10.90
2019-05-18T18:24:31.383Z,10.63
2019-05-18T18:29:36.648Z,11.15
2019-05-18T18:34:43.259Z,11.83
2019-05-18T18:39:48.508Z,11.45
2019-05-18T18:44:54.435Z,12.05
2019-05-18T18:50:00.049Z,12.58
2019-05-18T18:55:05.937Z,13.48
2019-05-18T19:00:12.032Z,12.90
2019-05-18T19:05:17.666Z,12.73
2019-05-18T19:10:23.556Z,12.78
2019-05-18T19:15:30.125Z,12.00
2019-05-18T19:20:35.413Z,11.10
2019-05-18T19:25:40.790Z,11.93
2019-05-18T19:30:46.948Z,11.20
2019-05-18T19:35:52.500Z,11.70
2019-05-18T19:40:57.951Z,11.78
2019-05-18T19:46:03.244Z,11.48
2019-05-18T19:51:08.498Z,11.45
2019-05-18T19:56:13.742Z,10.60
2019-05-18T20:01:19.707Z,9.60
2019-05-18T20:06:25.031Z,9.78
2019-05-18T20:11:30.317Z,11.05
2019-05-18T20:16:35.747Z,11.15
2019-05-18T20:21:41.052Z,12.07
2019-05-18T20:26:46.305Z,10.30
2019-05-18T20:31:51.631Z,11.28
2019-05-18T20:36:57.990Z,11.80
2019-05-18T20:42:03.276Z,11.80
2019-05-18T20:47:08.948Z,11.03
2019-05-18T20:52:14.257Z,13.18
2019-05-18T20:57:20.899Z,12.40
2019-05-18T21:02:26.172Z,14.70
2019-05-18T21:07:31.717Z,12.98
2019-05-18T21:12:37.187Z,12.10
2019-05-18T21:17:43.512Z,10.85
2019-05-18T21:22:49.111Z,11.05
2019-05-18T21:27:54.642Z,10.15
2019-05-18T21:32:59.915Z,10.65
2019-05-18T21:38:05.490Z,10.50
2019-05-18T21:43:10.976Z,10.35
2019-05-18T21:48:16.257Z,9.78
2019-05-18T21:53:21.521Z,12.82
2019-05-18T21:58:26.782Z,10.85
2019-05-18T22:03:32.800Z,11.22
2019-05-18T22:08:38.430Z,11.05
2019-05-18T22:13:43.673Z,10.78
2019-05-18T22:18:49.094Z,12.10
2019-05-18T22:23:54.681Z,12.05
2019-05-18T22:28:59.948Z,12.73
2019-05-18T22:34:05.550Z,15.10
2019-05-18T22:39:10.848Z,15.68
2019-05-18T22:44:16.231Z,14.40
2019-05-18T22:49:21.503Z,14.10
2019-05-18T22:54:26.765Z,14.50
2019-05-18T22:59:32.027Z,13.48
2019-05-18T23:04:37.476Z,18.40
2019-05-18T23:09:42.912Z,16.35
2019-05-18T23:14:48.468Z,16.95
2019-05-18T23:19:54.612Z,15.60
2019-05-18T23:24:59.881Z,16.73
2019-05-18T23:30:05.871Z,16.60
2019-05-18T23:35:11.217Z,15.50
2019-05-18T23:40:16.919Z,15.43
2019-05-18T23:45:22.510Z,13.93
2019-05-18T23:50:27.910Z,16.27
2019-05-18T23:55:33.372Z,17.35
